createdAt,value
2022-10-15T00:02:23.267Z,100325.03
2022-10-15T00:07:26.396Z,100318.44
2022-10-15T00:12:29.567Z,100319.78
2022-10-15T00:17:34.008Z,100317.97
2022-10-15T00:22:37.304Z,100318.28
2022-10-15T00:27:40.176Z,100317.41
2022-10-15T00:32:42.954Z,100316.50
2022-10-15T00:37:46.266Z,100313.03
2022-10-15T00:42:48.966Z,100311.38
2022-10-15T00:47:53.230Z,100297.44
2022-10-15T00:53:04.875Z,100292.13
2022-10-15T00:58:14.196Z,100297.75
2022-10-15T01:03:16.969Z,100292.22
2022-10-15T01:08:19.830Z,100292.19
2022-10-15T01:13:46.206Z,100288.16
2022-10-15T01:19:04.213Z,100291.81
2022-10-15T01:24:13.095Z,100296.56
2022-10-15T01:29:18.877Z,100293.25
2022-10-15T01:34:26.528Z,100286.28
2022-10-15T01:39:41.339Z,100280.28
2022-10-15T01:44:53.996Z,100281.28
2022-10-15T01:49:58.293Z,100281.00
2022-10-15T01:55:02.501Z,100270.41
2022-10-15T02:00:06.022Z,100278.63
2022-10-15T02:05:23.213Z,100284.91
2022-10-15T02:10:38.224Z,100281.59
2022-10-15T02:15:43.755Z,100284.25
2022-10-15T02:21:06.940Z,100282.56
2022-10-15T02:26:12.368Z,100285.09
2022-10-15T02:31:16.731Z,100264.50
2022-10-15T02:36:20.053Z,100270.25
2022-10-15T02:41:23.338Z,100282.28
2022-10-15T02:46:26.184Z,100280.78
2022-10-15T02:51:33.055Z,100262.00
2022-10-15T02:56:36.025Z,100268.44
2022-10-15T03:01:38.846Z,100269.84
2022-10-15T03:06:41.672Z,100260.69
2022-10-15T03:11:44.448Z,100257.97
2022-10-15T03:16:47.822Z,100265.09
2022-10-15T03:21:50.868Z,100261.06
2022-10-15T03:26:53.754Z,100261.22
2022-10-15T03:31:56.553Z,100272.53
2022-10-15T03:36:59.221Z,100275.66
2022-10-15T03:42:02.066Z,100276.78
2022-10-15T03:47:04.965Z,100282.06
2022-10-15T03:52:07.773Z,100281.41
2022-10-15T03:57:10.619Z,100275.88
2022-10-15T04:02:13.492Z,100255.97
2022-10-15T04:07:16.096Z,100263.22
2022-10-15T04:12:19.090Z,100268.81
2022-10-15T04:17:21.993Z,100263.13
2022-10-15T04:22:25.245Z,100253.25
2022-10-15T04:27:28.643Z,100260.47
2022-10-15T04:32:31.645Z,100271.91
2022-10-15T04:37:35.145Z,100274.00
2022-10-15T04:42:38.185Z,100271.53
2022-10-15T04:47:41.296Z,100272.78
2022-10-15T04:52:44.189Z,100273.09
2022-10-15T04:57:47.470Z,100279.22
2022-10-15T05:02:50.476Z,100267.22
2022-10-15T05:07:53.482Z,100275.53
2022-10-15T05:12:57.031Z,100281.34
2022-10-15T05:18:00.643Z,100284.69
2022-10-15T05:23:04.495Z,100284.69
2022-10-15T05:28:07.273Z,100279.38
2022-10-15T05:33:10.241Z,100271.56
2022-10-15T05:38:13.030Z,100271.63
2022-10-15T05:43:16.094Z,100275.34
2022-10-15T05:48:18.806Z,100271.97
2022-10-15T05:53:21.586Z,100288.59
2022-10-15T05:58:26.061Z,100279.38
2022-10-15T06:03:29.323Z,100288.81
2022-10-15T06:08:32.290Z,100298.81
2022-10-15T06:13:35.095Z,100313.69
2022-10-15T06:18:41.070Z,100308.72
2022-10-15T06:23:44.061Z,100311.47
2022-10-15T06:28:51.383Z,100318.28
2022-10-15T06:33:54.320Z,100318.22
2022-10-15T06:38:57.126Z,100317.19
2022-10-15T06:43:59.838Z,100305.88
2022-10-15T06:49:02.795Z,100311.59
2022-10-15T06:54:05.659Z,100325.47
2022-10-15T06:59:08.495Z,100327.50
2022-10-15T07:04:11.687Z,100326.44
2022-10-15T07:09:14.586Z,100332.09
2022-10-15T07:14:17.725Z,100334.28
2022-10-15T07:19:21.042Z,100327.94
2022-10-15T07:24:23.876Z,100327.28
2022-10-15T07:29:26.478Z,100334.97
2022-10-15T07:34:29.260Z,100327.34
2022-10-15T07:39:31.978Z,100329.31
2022-10-15T07:44:34.632Z,100328.44
2022-10-15T07:49:37.540Z,100332.41
2022-10-15T07:54:40.393Z,100325.69
2022-10-15T07:59:43.450Z,100332.91
2022-10-15T08:04:46.226Z,100337.31
2022-10-15T08:09:48.956Z,100339.38
2022-10-15T08:14:51.793Z,100339.78
2022-10-15T08:19:55.703Z,100340.63
2022-10-15T08:24:58.487Z,100343.38
2022-10-15T08:30:02.358Z,100341.75
2022-10-15T08:35:06.823Z,100323.38
2022-10-15T08:40:10.460Z,100316.53
2022-10-15T08:45:19.938Z,100320.44
2022-10-15T08:50:34.900Z,100326.91
2022-10-15T08:55:40.640Z,100317.00
2022-10-15T09:00:54.610Z,100315.34
2022-10-15T09:05:59.643Z,100321.69
2022-10-15T09:11:47.564Z,100325.53
2022-10-15T09:16:53.877Z,100322.69
2022-10-15T09:21:57.770Z,100326.91
2022-10-15T09:27:07.400Z,100332.16
2022-10-15T09:32:42.981Z,100322.72
2022-10-15T09:38:24.508Z,100321.94
2022-10-15T09:43:35.475Z,100324.19
2022-10-15T09:48:52.844Z,100329.56
2022-10-15T09:54:01.625Z,100324.78
2022-10-15T09:59:07.352Z,100316.91
2022-10-15T10:04:13.858Z,100307.78
2022-10-15T10:09:22.885Z,100304.34
2022-10-15T10:14:29.545Z,100308.34
2022-10-15T10:19:32.462Z,100299.53
2022-10-15T10:24:35.099Z,100301.47
2022-10-15T10:29:43.065Z,100287.47
2022-10-15T10:34:51.514Z,100290.59
2022-10-15T10:40:00.799Z,100278.88
2022-10-15T10:45:23.695Z,100279.72
2022-10-15T10:50:33.588Z,100274.66
2022-10-15T10:55:39.263Z,100275.41
2022-10-15T11:00:44.293Z,100261.00
2022-10-15T11:05:48.566Z,100269.16
2022-10-15T11:11:03.817Z,100267.75
2022-10-15T11:16:38.230Z,100249.19
2022-10-15T11:21:59.411Z,100250.28
2022-10-15T11:27:36.449Z,100243.91
2022-10-15T11:33:06.112Z,100217.72
2022-10-15T11:38:25.831Z,100214.00
2022-10-15T11:43:39.620Z,100210.06
2022-10-15T11:49:01.547Z,100204.66
2022-10-15T11:54:05.072Z,100204.00
2022-10-15T11:59:23.837Z,100207.91
2022-10-15T12:04:43.601Z,100199.63
2022-10-15T12:09:50.198Z,100190.06
2022-10-15T12:14:57.636Z,100194.97
2022-10-15T12:20:15.945Z,100189.38
2022-10-15T12:25:34.377Z,100190.78
2022-10-15T12:30:37.842Z,100182.56
2022-10-15T12:35:40.759Z,100183.44
2022-10-15T12:40:43.736Z,100180.41
2022-10-15T12:45:58.016Z,100183.97
2022-10-15T12:51:22.532Z,100173.88
2022-10-15T12:56:35.747Z,100178.84
2022-10-15T13:01:44.848Z,100178.38
2022-10-15T13:06:47.796Z,100190.13
2022-10-15T13:11:54.862Z,100171.91
2022-10-15T13:16:58.607Z,100178.06
2022-10-15T13:22:03.511Z,100176.19
2022-10-15T13:27:22.106Z,100182.66
2022-10-15T13:32:26.825Z,100185.78
2022-10-15T13:37:32.784Z,100183.31
2022-10-15T13:42:36.009Z,100193.50
2022-10-15T13:47:42.694Z,100196.25
2022-10-15T13:52:52.473Z,100193.78
2022-10-15T13:58:05.613Z,100181.44
2022-10-15T14:03:19.403Z,100186.59
2022-10-15T14:08:28.333Z,100183.28
2022-10-15T14:13:31.155Z,100177.53
2022-10-15T14:18:37.732Z,100179.19
2022-10-15T14:23:41.399Z,100173.63
2022-10-15T14:28:51.668Z,100181.72
2022-10-15T14:33:54.520Z,100177.59
2022-10-15T14:39:25.362Z,100172.25
2022-10-15T14:44:48.161Z,100164.63
2022-10-15T14:49:54.434Z,100169.44
2022-10-15T14:55:10.534Z,100178.94
2022-10-15T15:00:33.498Z,100173.00
2022-10-15T15:05:46.906Z,100184.81
2022-10-15T15:10:51.004Z,100188.53
2022-10-15T15:15:54.389Z,100184.84
2022-10-15T15:21:01.788Z,100181.78
2022-10-15T15:26:04.727Z,100183.59
2022-10-15T15:31:13.944Z,100174.94
2022-10-15T15:36:20.792Z,100172.47
2022-10-15T15:41:26.476Z,100175.13
2022-10-15T15:46:29.244Z,100178.63
2022-10-15T15:51:32.719Z,100182.56
2022-10-15T15:56:35.598Z,100194.94
2022-10-15T16:01:38.447Z,100209.75
2022-10-15T16:06:42.478Z,100216.09
2022-10-15T16:11:45.418Z,100230.50
2022-10-15T16:16:48.411Z,100228.22
2022-10-15T16:21:51.283Z,100236.38
2022-10-15T16:26:54.060Z,100246.44
2022-10-15T16:31:56.690Z,100249.28
2022-10-15T16:36:59.576Z,100261.16
2022-10-15T16:42:02.620Z,100259.47
2022-10-15T16:47:05.531Z,100271.16
2022-10-15T16:52:08.946Z,100281.00
2022-10-15T16:57:11.678Z,100284.44
2022-10-15T17:02:14.710Z,100280.69
2022-10-15T17:07:17.434Z,100281.09
2022-10-15T17:12:20.375Z,100290.94
2022-10-15T17:17:23.245Z,100291.03
2022-10-15T17:22:26.493Z,100308.69
2022-10-15T17:27:29.524Z,100316.66
2022-10-15T17:32:33.657Z,100320.75
2022-10-15T17:37:36.466Z,100325.66
2022-10-15T17:42:42.936Z,100333.41
2022-10-15T17:47:45.841Z,100327.59
2022-10-15T17:52:48.665Z,100331.50
2022-10-15T17:57:51.432Z,100339.31
2022-10-15T18:02:54.456Z,100336.00
2022-10-15T18:07:57.300Z,100347.75
2022-10-15T18:13:00.247Z,100346.41
2022-10-15T18:18:03.180Z,100356.69
2022-10-15T18:23:06.102Z,100360.28
2022-10-15T18:28:09.167Z,100359.63
2022-10-15T18:33:12.219Z,100350.13
2022-10-15T18:38:16.362Z,100346.63
2022-10-15T18:43:19.657Z,100351.34
2022-10-15T18:48:22.552Z,100355.25
2022-10-15T18:53:26.171Z,100353.94
2022-10-15T18:58:28.979Z,100351.00
2022-10-15T19:03:32.043Z,100355.91
2022-10-15T19:08:34.862Z,100357.56
2022-10-15T19:13:37.700Z,100358.94
2022-10-15T19:18:40.846Z,100366.97
2022-10-15T19:23:43.802Z,100365.94
2022-10-15T19:28:47.207Z,100383.00
2022-10-15T19:33:54.785Z,100393.06
2022-10-15T19:39:01.391Z,100399.38
2022-10-15T19:44:05.102Z,100399.38
2022-10-15T19:49:10.391Z,100404.91
2022-10-15T19:54:13.035Z,100405.13
2022-10-15T19:59:17.116Z,100401.63
2022-10-15T20:04:19.949Z,100402.78
2022-10-15T20:09:22.795Z,100412.03
2022-10-15T20:14:27.138Z,100417.56
2022-10-15T20:19:29.924Z,100428.59
2022-10-15T20:24:32.788Z,100434.97
2022-10-15T20:29:35.645Z,100436.50
2022-10-15T20:34:38.495Z,100448.03
2022-10-15T20:39:41.353Z,100447.19
2022-10-15T20:44:44.237Z,100449.03
2022-10-15T20:49:50.643Z,100433.84
2022-10-15T20:54:54.768Z,100454.59
2022-10-15T20:59:57.575Z,100452.09
2022-10-15T21:05:00.435Z,100453.28
2022-10-15T21:10:04.707Z,100464.78
2022-10-15T21:15:07.911Z,100470.50
2022-10-15T21:20:10.871Z,100469.50
2022-10-15T21:25:13.832Z,100472.50
2022-10-15T21:30:16.762Z,100476.19
2022-10-15T21:35:20.128Z,100469.19
2022-10-15T21:40:23.025Z,100465.91
2022-10-15T21:45:25.919Z,100463.38
2022-10-15T21:50:30.813Z,100477.28
2022-10-15T21:55:34.072Z,100485.84
2022-10-15T22:00:36.857Z,100488.31
2022-10-15T22:05:39.906Z,100488.31
2022-10-15T22:10:42.751Z,100489.53
2022-10-15T22:15:45.554Z,100494.19
2022-10-15T22:20:48.402Z,100493.38
2022-10-15T22:25:58.980Z,100501.75
2022-10-15T22:31:04.082Z,100501.75
2022-10-15T22:36:13.436Z,100509.09
2022-10-15T22:41:16.509Z,100500.81
2022-10-15T22:46:19.545Z,100513.97
2022-10-15T22:51:22.471Z,100520.16
2022-10-15T22:56:26.311Z,100519.97
2022-10-15T23:01:31.355Z,100525.13
2022-10-15T23:06:36.499Z,100524.28
2022-10-15T23:11:40.398Z,100524.28
2022-10-15T23:16:45.380Z,100525.97
2022-10-15T23:21:52.801Z,100528.78
2022-10-15T23:26:55.456Z,100534.50
2022-10-15T23:31:58.297Z,100540.84
2022-10-15T23:37:01.625Z,100544.50
2022-10-15T23:42:04.757Z,100543.22
2022-10-15T23:47:07.615Z,100548.38
2022-10-15T23:52:10.648Z,100548.75
2022-10-15T23:57:13.486Z,100545.59
